sensor_id;sensor_type;location;lat;lon;timestamp;P1;durP1;ratioP1;P2;durP2;ratioP2
32964;SDS011;19317;48.226;11.686;2023-02-16T00:01:52;9.07;;;7.10;;
32964;SDS011;19317;48.226;11.686;2023-02-16T00:06:42;10.50;;;7.37;;
32964;SDS011;19317;48.226;11.686;2023-02-16T00:11:33;10.13;;;7.00;;
32964;SDS011;19317;48.226;11.686;2023-02-16T00:16:24;15.33;;;7.10;;
32964;SDS011;19317;48.226;11.686;2023-02-16T00:21:15;9.37;;;6.93;;
32964;SDS011;19317;48.226;11.686;2023-02-16T00:26:13;19.93;;;7.40;;
32964;SDS011;19317;48.226;11.686;2023-02-16T00:31:05;8.00;;;6.80;;
32964;SDS011;19317;48.226;11.686;2023-02-16T00:35:58;11.20;;;6.87;;
32964;SDS011;19317;48.226;11.686;2023-02-16T00:40:48;9.23;;;6.93;;
32964;SDS011;19317;48.226;11.686;2023-02-16T00:45:39;8.83;;;7.03;;
32964;SDS011;19317;48.226;11.686;2023-02-16T00:50:30;8.30;;;6.40;;
32964;SDS011;19317;48.226;11.686;2023-02-16T00:55:23;8.77;;;6.90;;
32964;SDS011;19317;48.226;11.686;2023-02-16T01:00:23;7.80;;;6.90;;
32964;SDS011;19317;48.226;11.686;2023-02-16T01:05:22;12.00;;;6.00;;
32964;SDS011;19317;48.226;11.686;2023-02-16T01:10:15;28.87;;;6.20;;
32964;SDS011;19317;48.226;11.686;2023-02-16T01:15:13;15.23;;;6.23;;
32964;SDS011;19317;48.226;11.686;2023-02-16T01:20:13;6.80;;;6.17;;
32964;SDS011;19317;48.226;11.686;2023-02-16T01:25:05;30.27;;;6.03;;
32964;SDS011;19317;48.226;11.686;2023-02-16T01:29:55;25.93;;;5.70;;
32964;SDS011;19317;48.226;11.686;2023-02-16T01:34:46;10.20;;;6.07;;
32964;SDS011;19317;48.226;11.686;2023-02-16T01:39:36;28.03;;;6.10;;
32964;SDS011;19317;48.226;11.686;2023-02-16T01:44:28;41.73;;;6.73;;
32964;SDS011;19317;48.226;11.686;2023-02-16T01:49:25;10.77;;;6.20;;
32964;SDS011;19317;48.226;11.686;2023-02-16T01:54:27;17.10;;;6.33;;
32964;SDS011;19317;48.226;11.686;2023-02-16T02:04:39;7.37;;;6.37;;
32964;SDS011;19317;48.226;11.686;2023-02-16T02:09:42;49.63;;;9.40;;
32964;SDS011;19317;48.226;11.686;2023-02-16T02:14:38;29.53;;;7.37;;
32964;SDS011;19317;48.226;11.686;2023-02-16T02:19:29;65.00;;;7.13;;
32964;SDS011;19317;48.226;11.686;2023-02-16T02:39:34;7.43;;;6.63;;
32964;SDS011;19317;48.226;11.686;2023-02-16T02:49:52;8.50;;;6.30;;
32964;SDS011;19317;48.226;11.686;2023-02-16T02:54:43;11.43;;;6.27;;
32964;SDS011;19317;48.226;11.686;2023-02-16T02:59:36;7.03;;;6.30;;
32964;SDS011;19317;48.226;11.686;2023-02-16T03:04:31;6.13;;;5.53;;
32964;SDS011;19317;48.226;11.686;2023-02-16T03:09:22;13.47;;;6.40;;
32964;SDS011;19317;48.226;11.686;2023-02-16T03:19:14;6.30;;;5.70;;
32964;SDS011;19317;48.226;11.686;2023-02-16T03:24:08;6.20;;;5.60;;
32964;SDS011;19317;48.226;11.686;2023-02-16T03:29:02;5.37;;;4.73;;
32964;SDS011;19317;48.226;11.686;2023-02-16T03:33:56;5.20;;;4.70;;
32964;SDS011;19317;48.226;11.686;2023-02-16T03:38:47;5.93;;;5.10;;
32964;SDS011;19317;48.226;11.686;2023-02-16T03:43:37;5.90;;;5.30;;
32964;SDS011;19317;48.226;11.686;2023-02-16T03:48:28;5.90;;;4.87;;
32964;SDS011;19317;48.226;11.686;2023-02-16T03:53:18;5.60;;;5.00;;
32964;SDS011;19317;48.226;11.686;2023-02-16T03:58:10;11.23;;;4.70;;
32964;SDS011;19317;48.226;11.686;2023-02-16T04:03:02;13.83;;;5.30;;
32964;SDS011;19317;48.226;11.686;2023-02-16T04:07:53;7.83;;;4.73;;
32964;SDS011;19317;48.226;11.686;2023-02-16T04:12:45;5.47;;;4.97;;
32964;SDS011;19317;48.226;11.686;2023-02-16T04:17:36;5.57;;;5.07;;
32964;SDS011;19317;48.226;11.686;2023-02-16T04:22:26;6.27;;;5.10;;
32964;SDS011;19317;48.226;11.686;2023-02-16T04:27:17;4.97;;;4.57;;
32964;SDS011;19317;48.226;11.686;2023-02-16T04:32:08;8.27;;;7.03;;
32964;SDS011;19317;48.226;11.686;2023-02-16T04:36:58;5.63;;;5.13;;
32964;SDS011;19317;48.226;11.686;2023-02-16T04:41:48;5.80;;;5.20;;
32964;SDS011;19317;48.226;11.686;2023-02-16T04:46:39;9.80;;;5.10;;
32964;SDS011;19317;48.226;11.686;2023-02-16T04:51:29;5.63;;;5.03;;
32964;SDS011;19317;48.226;11.686;2023-02-16T04:56:20;5.70;;;5.10;;
32964;SDS011;19317;48.226;11.686;2023-02-16T05:01:17;8.10;;;5.60;;
32964;SDS011;19317;48.226;11.686;2023-02-16T05:06:11;5.33;;;4.83;;
32964;SDS011;19317;48.226;11.686;2023-02-16T05:11:02;4.90;;;4.50;;
32964;SDS011;19317;48.226;11.686;2023-02-16T05:15:53;7.27;;;5.13;;
32964;SDS011;19317;48.226;11.686;2023-02-16T05:20:43;6.10;;;4.43;;
32964;SDS011;19317;48.226;11.686;2023-02-16T05:25:33;7.87;;;5.13;;
32964;SDS011;19317;48.226;11.686;2023-02-16T05:30:24;5.97;;;5.03;;
32964;SDS011;19317;48.226;11.686;2023-02-16T05:35:14;5.80;;;5.23;;
32964;SDS011;19317;48.226;11.686;2023-02-16T05:40:05;5.57;;;5.07;;
32964;SDS011;19317;48.226;11.686;2023-02-16T05:44:56;5.37;;;4.87;;
32964;SDS011;19317;48.226;11.686;2023-02-16T05:49:46;5.40;;;4.90;;
32964;SDS011;19317;48.226;11.686;2023-02-16T05:54:37;5.40;;;4.90;;
32964;SDS011;19317;48.226;11.686;2023-02-16T05:59:27;6.20;;;5.60;;
32964;SDS011;19317;48.226;11.686;2023-02-16T06:04:18;5.87;;;5.37;;
32964;SDS011;19317;48.226;11.686;2023-02-16T06:09:10;5.90;;;5.07;;
32964;SDS011;19317;48.226;11.686;2023-02-16T06:14:07;5.60;;;5.10;;
32964;SDS011;19317;48.226;11.686;2023-02-16T06:19:03;6.80;;;5.63;;
32964;SDS011;19317;48.226;11.686;2023-02-16T06:23:54;5.30;;;4.80;;
32964;SDS011;19317;48.226;11.686;2023-02-16T06:28:45;5.13;;;4.73;;
32964;SDS011;19317;48.226;11.686;2023-02-16T06:33:35;5.10;;;4.70;;
32964;SDS011;19317;48.226;11.686;2023-02-16T06:38:26;5.70;;;5.17;;
32964;SDS011;19317;48.226;11.686;2023-02-16T06:43:16;5.70;;;5.20;;
32964;SDS011;19317;48.226;11.686;2023-02-16T06:48:07;5.27;;;4.77;;
32964;SDS011;19317;48.226;11.686;2023-02-16T06:52:57;5.53;;;5.03;;
32964;SDS011;19317;48.226;11.686;2023-02-16T06:57:48;6.10;;;5.43;;
32964;SDS011;19317;48.226;11.686;2023-02-16T07:02:38;6.70;;;5.43;;
32964;SDS011;19317;48.226;11.686;2023-02-16T07:07:29;6.77;;;6.07;;
32964;SDS011;19317;48.226;11.686;2023-02-16T07:12:19;7.03;;;5.40;;
32964;SDS011;19317;48.226;11.686;2023-02-16T07:17:10;5.70;;;5.20;;
32964;SDS011;19317;48.226;11.686;2023-02-16T07:22:00;5.43;;;4.93;;
32964;SDS011;19317;48.226;11.686;2023-02-16T07:26:51;5.73;;;5.13;;
32964;SDS011;19317;48.226;11.686;2023-02-16T07:31:42;6.17;;;5.37;;
32964;SDS011;19317;48.226;11.686;2023-02-16T07:36:32;5.57;;;5.07;;
32964;SDS011;19317;48.226;11.686;2023-02-16T07:41:23;6.00;;;5.40;;
32964;SDS011;19317;48.226;11.686;2023-02-16T07:46:14;5.90;;;5.37;;
32964;SDS011;19317;48.226;11.686;2023-02-16T07:51:04;5.67;;;5.13;;
32964;SDS011;19317;48.226;11.686;2023-02-16T07:55:54;5.87;;;5.37;;
32964;SDS011;19317;48.226;11.686;2023-02-16T08:00:45;5.67;;;5.17;;
32964;SDS011;19317;48.226;11.686;2023-02-16T08:05:35;5.60;;;5.10;;
32964;SDS011;19317;48.226;11.686;2023-02-16T08:10:26;5.77;;;5.23;;
32964;SDS011;19317;48.226;11.686;2023-02-16T08:15:16;6.23;;;5.63;;
32964;SDS011;19317;48.226;11.686;2023-02-16T08:20:07;6.07;;;5.57;;
32964;SDS011;19317;48.226;11.686;2023-02-16T08:24:58;6.80;;;5.60;;
32964;SDS011;19317;48.226;11.686;2023-02-16T08:29:48;6.27;;;5.63;;
32964;SDS011;19317;48.226;11.686;2023-02-16T08:34:39;7.33;;;6.00;;
32964;SDS011;19317;48.226;11.686;2023-02-16T08:39:30;6.67;;;6.07;;
32964;SDS011;19317;48.226;11.686;2023-02-16T08:44:22;7.47;;;6.57;;
32964;SDS011;19317;48.226;11.686;2023-02-16T08:49:13;8.93;;;6.80;;
32964;SDS011;19317;48.226;11.686;2023-02-16T08:54:05;7.20;;;6.33;;
32964;SDS011;19317;48.226;11.686;2023-02-16T08:58:56;8.30;;;6.63;;
32964;SDS011;19317;48.226;11.686;2023-02-16T09:03:46;9.60;;;7.00;;
32964;SDS011;19317;48.226;11.686;2023-02-16T09:08:37;8.67;;;7.13;;
32964;SDS011;19317;48.226;11.686;2023-02-16T09:13:29;7.60;;;6.80;;
32964;SDS011;19317;48.226;11.686;2023-02-16T09:18:19;8.50;;;7.47;;
32964;SDS011;19317;48.226;11.686;2023-02-16T09:23:10;8.67;;;6.60;;
32964;SDS011;19317;48.226;11.686;2023-02-16T09:28:01;8.40;;;7.17;;
32964;SDS011;19317;48.226;11.686;2023-02-16T09:32:52;8.07;;;7.00;;
32964;SDS011;19317;48.226;11.686;2023-02-16T09:37:42;9.10;;;7.30;;
32964;SDS011;19317;48.226;11.686;2023-02-16T09:48:00;11.27;;;7.40;;
32964;SDS011;19317;48.226;11.686;2023-02-16T09:52:56;7.77;;;6.97;;
32964;SDS011;19317;48.226;11.686;2023-02-16T10:08:06;13.67;;;9.57;;
32964;SDS011;19317;48.226;11.686;2023-02-16T10:13:14;14.47;;;9.17;;
32964;SDS011;19317;48.226;11.686;2023-02-16T10:18:18;13.93;;;9.03;;
32964;SDS011;19317;48.226;11.686;2023-02-16T10:23:33;13.03;;;8.03;;
32964;SDS011;19317;48.226;11.686;2023-02-16T10:28:47;12.27;;;8.50;;
32964;SDS011;19317;48.226;11.686;2023-02-16T10:33:43;12.97;;;8.70;;
32964;SDS011;19317;48.226;11.686;2023-02-16T10:39:04;11.57;;;7.70;;
32964;SDS011;19317;48.226;11.686;2023-02-16T10:44:20;13.53;;;7.60;;
32964;SDS011;19317;48.226;11.686;2023-02-16T10:49:18;9.47;;;6.27;;
32964;SDS011;19317;48.226;11.686;2023-02-16T10:54:13;12.63;;;7.57;;
32964;SDS011;19317;48.226;11.686;2023-02-16T10:59:16;12.40;;;7.73;;
32964;SDS011;19317;48.226;11.686;2023-02-16T11:04:28;9.40;;;6.20;;
32964;SDS011;19317;48.226;11.686;2023-02-16T11:09:21;10.70;;;6.97;;
32964;SDS011;19317;48.226;11.686;2023-02-16T11:14:21;10.50;;;6.30;;
32964;SDS011;19317;48.226;11.686;2023-02-16T11:19:21;10.83;;;7.17;;
32964;SDS011;19317;48.226;11.686;2023-02-16T11:24:30;11.33;;;7.13;;
32964;SDS011;19317;48.226;11.686;2023-02-16T11:29:22;9.83;;;6.37;;
32964;SDS011;19317;48.226;11.686;2023-02-16T11:44:03;8.17;;;5.30;;
32964;SDS011;19317;48.226;11.686;2023-02-16T11:48:53;7.93;;;5.30;;
32964;SDS011;19317;48.226;11.686;2023-02-16T11:53:44;5.83;;;4.13;;
32964;SDS011;19317;48.226;11.686;2023-02-16T11:59:01;6.67;;;4.87;;
32964;SDS011;19317;48.226;11.686;2023-02-16T12:03:58;6.43;;;4.63;;
32964;SDS011;19317;48.226;11.686;2023-02-16T12:24:05;6.43;;;4.30;;
32964;SDS011;19317;48.226;11.686;2023-02-16T12:34:12;5.03;;;4.10;;
32964;SDS011;19317;48.226;11.686;2023-02-16T12:39:15;5.53;;;4.00;;
32964;SDS011;19317;48.226;11.686;2023-02-16T12:44:31;6.57;;;4.23;;
32964;SDS011;19317;48.226;11.686;2023-02-16T12:49:27;6.00;;;4.23;;
32964;SDS011;19317;48.226;11.686;2023-02-16T12:54:50;5.97;;;3.70;;
32964;SDS011;19317;48.226;11.686;2023-02-16T13:00:04;6.63;;;4.23;;
32964;SDS011;19317;48.226;11.686;2023-02-16T13:05:24;4.77;;;3.70;;
32964;SDS011;19317;48.226;11.686;2023-02-16T13:10:22;5.23;;;3.80;;
32964;SDS011;19317;48.226;11.686;2023-02-16T13:15:29;5.07;;;2.90;;
32964;SDS011;19317;48.226;11.686;2023-02-16T13:20:23;3.93;;;3.50;;
32964;SDS011;19317;48.226;11.686;2023-02-16T13:25:30;3.97;;;3.17;;
32964;SDS011;19317;48.226;11.686;2023-02-16T13:41:04;4.97;;;3.90;;
32964;SDS011;19317;48.226;11.686;2023-02-16T13:45:55;5.77;;;3.80;;
32964;SDS011;19317;48.226;11.686;2023-02-16T13:50:53;4.47;;;3.63;;
32964;SDS011;19317;48.226;11.686;2023-02-16T13:55:46;4.03;;;3.33;;
32964;SDS011;19317;48.226;11.686;2023-02-16T14:05:33;4.93;;;3.93;;
32964;SDS011;19317;48.226;11.686;2023-02-16T14:15:47;3.97;;;3.50;;
32964;SDS011;19317;48.226;11.686;2023-02-16T14:20:39;4.70;;;3.87;;
32964;SDS011;19317;48.226;11.686;2023-02-16T14:25:31;5.80;;;4.00;;
32964;SDS011;19317;48.226;11.686;2023-02-16T14:30:34;4.70;;;3.70;;
32964;SDS011;19317;48.226;11.686;2023-02-16T14:35:32;6.30;;;4.17;;
32964;SDS011;19317;48.226;11.686;2023-02-16T14:46:16;5.70;;;3.70;;
32964;SDS011;19317;48.226;11.686;2023-02-16T14:50:57;6.60;;;3.90;;
32964;SDS011;19317;48.226;11.686;2023-02-16T14:55:55;5.50;;;3.80;;
32964;SDS011;19317;48.226;11.686;2023-02-16T15:01:04;5.33;;;4.00;;
32964;SDS011;19317;48.226;11.686;2023-02-16T15:06:02;8.13;;;4.20;;
32964;SDS011;19317;48.226;11.686;2023-02-16T15:10:53;5.20;;;3.90;;
32964;SDS011;19317;48.226;11.686;2023-02-16T15:15:48;5.23;;;4.00;;
32964;SDS011;19317;48.226;11.686;2023-02-16T15:20:41;5.77;;;3.70;;
32964;SDS011;19317;48.226;11.686;2023-02-16T15:25:35;5.50;;;3.83;;
32964;SDS011;19317;48.226;11.686;2023-02-16T15:30:28;5.73;;;4.00;;
32964;SDS011;19317;48.226;11.686;2023-02-16T15:35:24;5.73;;;4.30;;
32964;SDS011;19317;48.226;11.686;2023-02-16T15:40:23;5.20;;;4.03;;
32964;SDS011;19317;48.226;11.686;2023-02-16T15:45:22;5.77;;;4.20;;
32964;SDS011;19317;48.226;11.686;2023-02-16T15:50:17;5.87;;;4.27;;
32964;SDS011;19317;48.226;11.686;2023-02-16T15:55:12;6.23;;;4.80;;
32964;SDS011;19317;48.226;11.686;2023-02-16T16:00:04;5.53;;;4.10;;
32964;SDS011;19317;48.226;11.686;2023-02-16T16:05:06;7.10;;;4.83;;
32964;SDS011;19317;48.226;11.686;2023-02-16T16:10:14;6.53;;;4.10;;
32964;SDS011;19317;48.226;11.686;2023-02-16T16:15:14;7.07;;;4.40;;
32964;SDS011;19317;48.226;11.686;2023-02-16T16:20:26;7.00;;;4.60;;
32964;SDS011;19317;48.226;11.686;2023-02-16T16:30:34;5.03;;;4.10;;
32964;SDS011;19317;48.226;11.686;2023-02-16T16:35:33;7.33;;;4.50;;
32964;SDS011;19317;48.226;11.686;2023-02-16T16:40:33;6.53;;;4.67;;
32964;SDS011;19317;48.226;11.686;2023-02-16T16:45:36;6.90;;;4.53;;
32964;SDS011;19317;48.226;11.686;2023-02-16T16:50:32;6.87;;;5.03;;
32964;SDS011;19317;48.226;11.686;2023-02-16T16:55:26;9.07;;;5.20;;
32964;SDS011;19317;48.226;11.686;2023-02-16T17:00:22;8.20;;;5.60;;
32964;SDS011;19317;48.226;11.686;2023-02-16T17:05:14;9.00;;;5.70;;
32964;SDS011;19317;48.226;11.686;2023-02-16T17:10:05;8.73;;;6.37;;
32964;SDS011;19317;48.226;11.686;2023-02-16T17:14:56;11.73;;;6.30;;
32964;SDS011;19317;48.226;11.686;2023-02-16T17:19:46;8.43;;;5.60;;
32964;SDS011;19317;48.226;11.686;2023-02-16T17:24:37;7.20;;;5.17;;
32964;SDS011;19317;48.226;11.686;2023-02-16T17:29:27;8.40;;;5.83;;
32964;SDS011;19317;48.226;11.686;2023-02-16T17:34:17;9.80;;;7.00;;
32964;SDS011;19317;48.226;11.686;2023-02-16T17:39:08;13.00;;;7.63;;
32964;SDS011;19317;48.226;11.686;2023-02-16T17:43:58;9.73;;;6.77;;
32964;SDS011;19317;48.226;11.686;2023-02-16T17:48:50;12.80;;;6.40;;
32964;SDS011;19317;48.226;11.686;2023-02-16T17:53:42;9.23;;;6.00;;
32964;SDS011;19317;48.226;11.686;2023-02-16T17:58:32;11.40;;;7.20;;
32964;SDS011;19317;48.226;11.686;2023-02-16T18:03:23;11.40;;;6.77;;
32964;SDS011;19317;48.226;11.686;2023-02-16T18:08:13;8.70;;;6.13;;
32964;SDS011;19317;48.226;11.686;2023-02-16T18:13:04;7.80;;;6.27;;
32964;SDS011;19317;48.226;11.686;2023-02-16T18:17:55;8.13;;;5.90;;
32964;SDS011;19317;48.226;11.686;2023-02-16T18:22:46;9.10;;;6.00;;
32964;SDS011;19317;48.226;11.686;2023-02-16T18:27:36;8.83;;;6.57;;
32964;SDS011;19317;48.226;11.686;2023-02-16T18:32:27;10.03;;;6.67;;
32964;SDS011;19317;48.226;11.686;2023-02-16T18:37:17;7.67;;;5.97;;
32964;SDS011;19317;48.226;11.686;2023-02-16T18:42:08;9.07;;;5.70;;
32964;SDS011;19317;48.226;11.686;2023-02-16T18:46:59;8.73;;;6.10;;
32964;SDS011;19317;48.226;11.686;2023-02-16T18:51:49;9.00;;;5.90;;
32964;SDS011;19317;48.226;11.686;2023-02-16T18:56:40;10.97;;;6.53;;
32964;SDS011;19317;48.226;11.686;2023-02-16T19:01:30;8.47;;;6.47;;
32964;SDS011;19317;48.226;11.686;2023-02-16T19:06:21;12.10;;;6.27;;
32964;SDS011;19317;48.226;11.686;2023-02-16T19:11:12;9.80;;;6.43;;
32964;SDS011;19317;48.226;11.686;2023-02-16T19:16:03;10.23;;;6.20;;
32964;SDS011;19317;48.226;11.686;2023-02-16T19:20:54;9.97;;;5.83;;
32964;SDS011;19317;48.226;11.686;2023-02-16T19:25:44;9.60;;;5.90;;
32964;SDS011;19317;48.226;11.686;2023-02-16T19:30:34;7.23;;;5.47;;
32964;SDS011;19317;48.226;11.686;2023-02-16T19:35:25;9.03;;;5.90;;
32964;SDS011;19317;48.226;11.686;2023-02-16T19:40:15;7.33;;;5.33;;
32964;SDS011;19317;48.226;11.686;2023-02-16T19:45:06;9.33;;;6.00;;
32964;SDS011;19317;48.226;11.686;2023-02-16T19:49:57;7.57;;;5.70;;
32964;SDS011;19317;48.226;11.686;2023-02-16T19:54:47;8.63;;;5.33;;
32964;SDS011;19317;48.226;11.686;2023-02-16T19:59:38;9.50;;;5.80;;
32964;SDS011;19317;48.226;11.686;2023-02-16T20:04:28;7.07;;;5.23;;
32964;SDS011;19317;48.226;11.686;2023-02-16T20:09:19;10.57;;;6.07;;
32964;SDS011;19317;48.226;11.686;2023-02-16T20:14:10;12.07;;;5.70;;
32964;SDS011;19317;48.226;11.686;2023-02-16T20:19:02;7.13;;;4.70;;
32964;SDS011;19317;48.226;11.686;2023-02-16T20:23:54;6.03;;;4.70;;
32964;SDS011;19317;48.226;11.686;2023-02-16T20:28:46;7.90;;;4.60;;
32964;SDS011;19317;48.226;11.686;2023-02-16T20:33:38;9.63;;;4.90;;
32964;SDS011;19317;48.226;11.686;2023-02-16T20:38:28;6.23;;;4.73;;
32964;SDS011;19317;48.226;11.686;2023-02-16T20:43:19;9.00;;;5.20;;
32964;SDS011;19317;48.226;11.686;2023-02-16T20:48:09;9.60;;;4.80;;
32964;SDS011;19317;48.226;11.686;2023-02-16T20:52:59;6.80;;;4.87;;
32964;SDS011;19317;48.226;11.686;2023-02-16T20:57:50;7.87;;;4.17;;
32964;SDS011;19317;48.226;11.686;2023-02-16T21:02:41;8.00;;;4.47;;
32964;SDS011;19317;48.226;11.686;2023-02-16T21:07:31;5.47;;;4.47;;
32964;SDS011;19317;48.226;11.686;2023-02-16T21:12:22;6.47;;;4.80;;
32964;SDS011;19317;48.226;11.686;2023-02-16T21:17:12;8.47;;;5.37;;
32964;SDS011;19317;48.226;11.686;2023-02-16T21:22:03;7.83;;;4.93;;
32964;SDS011;19317;48.226;11.686;2023-02-16T21:26:53;6.37;;;4.20;;
32964;SDS011;19317;48.226;11.686;2023-02-16T21:31:44;7.87;;;5.00;;
32964;SDS011;19317;48.226;11.686;2023-02-16T21:36:34;7.33;;;4.93;;
32964;SDS011;19317;48.226;11.686;2023-02-16T21:41:25;5.90;;;4.53;;
32964;SDS011;19317;48.226;11.686;2023-02-16T21:46:17;10.20;;;5.27;;
32964;SDS011;19317;48.226;11.686;2023-02-16T21:51:07;8.90;;;4.87;;
32964;SDS011;19317;48.226;11.686;2023-02-16T21:56:02;7.77;;;4.80;;
32964;SDS011;19317;48.226;11.686;2023-02-16T22:00:57;8.83;;;5.23;;
32964;SDS011;19317;48.226;11.686;2023-02-16T22:05:47;7.70;;;4.47;;
32964;SDS011;19317;48.226;11.686;2023-02-16T22:10:38;7.07;;;4.67;;
32964;SDS011;19317;48.226;11.686;2023-02-16T22:15:28;7.00;;;4.30;;
32964;SDS011;19317;48.226;11.686;2023-02-16T22:20:19;5.47;;;4.77;;
32964;SDS011;19317;48.226;11.686;2023-02-16T22:25:10;6.33;;;4.57;;
32964;SDS011;19317;48.226;11.686;2023-02-16T22:30:02;6.10;;;4.77;;
32964;SDS011;19317;48.226;11.686;2023-02-16T22:34:54;7.47;;;4.93;;
32964;SDS011;19317;48.226;11.686;2023-02-16T22:39:45;7.50;;;4.60;;
32964;SDS011;19317;48.226;11.686;2023-02-16T22:44:35;8.00;;;4.30;;
32964;SDS011;19317;48.226;11.686;2023-02-16T22:49:26;7.23;;;4.90;;
32964;SDS011;19317;48.226;11.686;2023-02-16T22:54:16;6.90;;;4.73;;
32964;SDS011;19317;48.226;11.686;2023-02-16T22:59:08;6.10;;;4.30;;
32964;SDS011;19317;48.226;11.686;2023-02-16T23:03:59;6.87;;;4.10;;
32964;SDS011;19317;48.226;11.686;2023-02-16T23:08:51;7.60;;;4.07;;
32964;SDS011;19317;48.226;11.686;2023-02-16T23:13:43;6.90;;;4.27;;
32964;SDS011;19317;48.226;11.686;2023-02-16T23:18:34;5.57;;;3.97;;
32964;SDS011;19317;48.226;11.686;2023-02-16T23:23:24;7.50;;;4.03;;
32964;SDS011;19317;48.226;11.686;2023-02-16T23:28:15;6.17;;;3.83;;
32964;SDS011;19317;48.226;11.686;2023-02-16T23:33:05;5.33;;;3.73;;
32964;SDS011;19317;48.226;11.686;2023-02-16T23:37:56;5.27;;;4.27;;
32964;SDS011;19317;48.226;11.686;2023-02-16T23:42:46;4.77;;;4.00;;
32964;SDS011;19317;48.226;11.686;2023-02-16T23:47:36;6.17;;;4.10;;
32964;SDS011;19317;48.226;11.686;2023-02-16T23:52:27;6.87;;;3.97;;
32964;SDS011;19317;48.226;11.686;2023-02-16T23:57:17;5.80;;;4.47;;
